WMT411 LIPH-LATI
Flight info
| Callsign | WMT411 |
|---|---|
| Flight time | 1h 7m |
| Altitude | 19000 |
| Route | INBUT N503 LAREN/N0354F180 Q561 AKADO/N0360F190 L615 TULIK/N0440F370 DCT ROTAR DCT PUL DCT LOS DCT EBITA DCT SPL DCT SIPAL DCT NERRA DCT BALHA DCT MOKUN DCT TIBRI DCT PETAK |
| Aircraft | A321/M-SDE1E2E3FGIJ1J4RWXY/LB1 |
Departure
| Time | 2026-05-06 13:04 |
|---|---|
| Airport | Treviso Airport (LIPH) |
Arrival
| Time | 2026-05-06 14:11 |
|---|---|
| Airport | Tirana International Airport Mother Teresa (LATI) |
| Time | Latitude | Longitude | Altitude | Speed | Heading |
|---|---|---|---|---|---|
| 2026-05-06 12:44 | 45.65361 | 12.20378 | 59 ft | 0 kts | 339° |
| 2026-05-06 12:53 | 45.65360 | 12.20378 | 59 ft | 0 kts | 339° |
| 2026-05-06 12:56 | 45.65360 | 12.20379 | 61 ft | 0 kts | 339° |
| 2026-05-06 13:02 | 45.65380 | 12.20384 | 61 ft | 8 kts | 26° |
| 2026-05-06 13:02 | 45.65391 | 12.20506 | 55 ft | 17 kts | 95° |
| 2026-05-06 13:02 | 45.65384 | 12.20690 | 58 ft | 17 kts | 107° |
| 2026-05-06 13:03 | 45.65297 | 12.20776 | 59 ft | 14 kts | 159° |
| 2026-05-06 13:03 | 45.65212 | 12.20770 | 56 ft | 12 kts | 222° |
| 2026-05-06 13:03 | 45.65184 | 12.20676 | 60 ft | 11 kts | 254° |
| 2026-05-06 13:03 | 45.65100 | 12.20359 | 56 ft | 71 kts | 249° |
| 2026-05-06 13:04 | 45.64835 | 12.19358 | 58 ft | 141 kts | 249° |
| 2026-05-06 13:04 | 45.64449 | 12.17874 | 455 ft | 159 kts | 251° |
| 2026-05-06 13:04 | 45.64056 | 12.16429 | 1290 ft | 156 kts | 246° |
| 2026-05-06 13:04 | 45.63604 | 12.14944 | 1832 ft | 173 kts | 245° |
| 2026-05-06 13:05 | 45.63086 | 12.13276 | 2179 ft | 195 kts | 245° |
| 2026-05-06 13:05 | 45.62502 | 12.11397 | 2553 ft | 219 kts | 244° |
| 2026-05-06 13:05 | 45.61848 | 12.09290 | 2966 ft | 245 kts | 244° |
| 2026-05-06 13:05 | 45.61121 | 12.07024 | 3705 ft | 254 kts | 244° |
| 2026-05-06 13:06 | 45.60375 | 12.04733 | 4566 ft | 256 kts | 244° |
| 2026-05-06 13:06 | 45.59619 | 12.02426 | 5473 ft | 256 kts | 244° |
| 2026-05-06 13:06 | 45.58864 | 12.00120 | 6503 ft | 256 kts | 244° |
| 2026-05-06 13:06 | 45.58106 | 11.97805 | 7504 ft | 258 kts | 244° |
| 2026-05-06 13:07 | 45.57343 | 11.95475 | 8485 ft | 260 kts | 244° |
| 2026-05-06 13:07 | 45.56572 | 11.93116 | 9389 ft | 264 kts | 243° |
| 2026-05-06 13:07 | 45.55792 | 11.90729 | 10257 ft | 270 kts | 243° |
| 2026-05-06 13:07 | 45.54941 | 11.88219 | 10607 ft | 292 kts | 238° |
| 2026-05-06 13:08 | 45.53532 | 11.86031 | 11031 ft | 309 kts | 214° |
| 2026-05-06 13:08 | 45.51521 | 11.84887 | 11732 ft | 319 kts | 190° |
| 2026-05-06 13:08 | 45.49289 | 11.85166 | 12445 ft | 331 kts | 164° |
| 2026-05-06 13:08 | 45.47334 | 11.86965 | 13155 ft | 345 kts | 137° |
| 2026-05-06 13:09 | 45.46088 | 11.89957 | 13859 ft | 359 kts | 115° |
| 2026-05-06 13:09 | 45.45318 | 11.93361 | 14507 ft | 364 kts | 110° |
| 2026-05-06 13:09 | 45.44714 | 11.96892 | 15155 ft | 369 kts | 107° |
| 2026-05-06 13:09 | 45.44180 | 12.00484 | 15791 ft | 373 kts | 107° |
| 2026-05-06 13:10 | 45.43646 | 12.04108 | 16438 ft | 376 kts | 107° |
| 2026-05-06 13:10 | 45.43077 | 12.07752 | 17061 ft | 379 kts | 108° |
| 2026-05-06 13:10 | 45.42464 | 12.11409 | 17680 ft | 382 kts | 109° |
| 2026-05-06 13:10 | 45.41808 | 12.15112 | 18200 ft | 388 kts | 109° |
| 2026-05-06 13:11 | 45.41125 | 12.18859 | 18742 ft | 394 kts | 110° |
| 2026-05-06 13:11 | 45.40430 | 12.22648 | 19369 ft | 398 kts | 110° |
| 2026-05-06 13:11 | 45.39731 | 12.26475 | 19974 ft | 402 kts | 110° |
| 2026-05-06 13:11 | 45.39026 | 12.30343 | 20540 ft | 406 kts | 110° |
| 2026-05-06 13:12 | 45.38316 | 12.34244 | 21116 ft | 410 kts | 110° |
| 2026-05-06 13:12 | 45.37598 | 12.38201 | 21643 ft | 414 kts | 110° |
| 2026-05-06 13:12 | 45.36875 | 12.42183 | 22174 ft | 418 kts | 110° |
| 2026-05-06 13:12 | 45.36142 | 12.46202 | 22701 ft | 422 kts | 110° |
| 2026-05-06 13:13 | 45.35403 | 12.50248 | 23228 ft | 424 kts | 110° |
| 2026-05-06 13:13 | 45.34659 | 12.54311 | 23744 ft | 426 kts | 110° |
| 2026-05-06 13:13 | 45.33911 | 12.58394 | 24170 ft | 429 kts | 110° |
| 2026-05-06 13:13 | 45.33164 | 12.62459 | 24577 ft | 432 kts | 110° |
| 2026-05-06 13:14 | 45.32393 | 12.66656 | 24979 ft | 435 kts | 110° |
| 2026-05-06 13:14 | 45.31621 | 12.70837 | 25397 ft | 439 kts | 110° |
| 2026-05-06 13:14 | 45.30839 | 12.75045 | 25827 ft | 442 kts | 110° |
| 2026-05-06 13:14 | 45.30060 | 12.79224 | 26217 ft | 445 kts | 110° |
| 2026-05-06 13:15 | 45.29264 | 12.83489 | 26591 ft | 448 kts | 111° |
| 2026-05-06 13:15 | 45.28462 | 12.87774 | 26953 ft | 451 kts | 110° |
| 2026-05-06 13:15 | 45.27651 | 12.92087 | 27333 ft | 453 kts | 110° |
| 2026-05-06 13:15 | 45.26836 | 12.96422 | 27701 ft | 456 kts | 111° |
| 2026-05-06 13:16 | 45.25764 | 13.00639 | 28047 ft | 452 kts | 121° |
| 2026-05-06 13:16 | 45.24301 | 13.04563 | 28416 ft | 450 kts | 126° |
| 2026-05-06 13:16 | 45.22758 | 13.08441 | 28784 ft | 453 kts | 126° |
| 2026-05-06 13:16 | 45.21201 | 13.12349 | 29156 ft | 456 kts | 126° |
| 2026-05-06 13:17 | 45.19631 | 13.16284 | 29499 ft | 460 kts | 126° |
| 2026-05-06 13:17 | 45.18054 | 13.20240 | 29805 ft | 462 kts | 126° |
| 2026-05-06 13:17 | 45.16470 | 13.24218 | 30134 ft | 465 kts | 126° |
| 2026-05-06 13:17 | 45.14878 | 13.28212 | 30439 ft | 467 kts | 126° |
| 2026-05-06 13:18 | 45.13278 | 13.32220 | 30774 ft | 468 kts | 126° |
| 2026-05-06 13:18 | 45.11671 | 13.36243 | 31106 ft | 470 kts | 126° |
| 2026-05-06 13:18 | 45.10057 | 13.40277 | 31439 ft | 471 kts | 126° |
| 2026-05-06 13:18 | 45.08445 | 13.44301 | 31890 ft | 469 kts | 126° |
| 2026-05-06 13:19 | 45.06837 | 13.48315 | 32368 ft | 467 kts | 126° |
| 2026-05-06 13:19 | 45.05235 | 13.52306 | 32805 ft | 466 kts | 126° |
| 2026-05-06 13:19 | 45.03638 | 13.56278 | 33319 ft | 463 kts | 126° |
| 2026-05-06 13:19 | 45.02052 | 13.60223 | 33807 ft | 460 kts | 126° |
| 2026-05-06 13:20 | 45.00473 | 13.64148 | 34268 ft | 459 kts | 126° |
| 2026-05-06 13:20 | 44.98890 | 13.68067 | 34747 ft | 459 kts | 126° |
| 2026-05-06 13:20 | 44.97304 | 13.71978 | 35238 ft | 458 kts | 126° |
| 2026-05-06 13:20 | 44.95725 | 13.75870 | 35612 ft | 457 kts | 126° |
| 2026-05-06 13:21 | 44.94143 | 13.79759 | 35945 ft | 456 kts | 126° |
| 2026-05-06 13:21 | 44.92560 | 13.83645 | 36272 ft | 456 kts | 126° |
| 2026-05-06 13:21 | 44.90981 | 13.87522 | 36548 ft | 456 kts | 126° |
| 2026-05-06 13:21 | 44.89326 | 13.91326 | 36827 ft | 452 kts | 131° |
| 2026-05-06 13:22 | 44.87349 | 13.94734 | 36960 ft | 446 kts | 139° |
| 2026-05-06 13:22 | 44.83145 | 14.01138 | 36975 ft | 444 kts | 139° |
| 2026-05-06 13:23 | 44.78944 | 14.07523 | 36963 ft | 444 kts | 139° |
| 2026-05-06 13:23 | 44.74755 | 14.13908 | 36967 ft | 444 kts | 139° |
| 2026-05-06 13:24 | 44.70559 | 14.20291 | 36964 ft | 444 kts | 139° |
| 2026-05-06 13:24 | 44.66384 | 14.26614 | 36971 ft | 444 kts | 139° |
| 2026-05-06 13:25 | 44.62175 | 14.32984 | 36972 ft | 445 kts | 139° |
| 2026-05-06 13:25 | 44.57961 | 14.39350 | 36979 ft | 445 kts | 139° |
| 2026-05-06 13:26 | 44.53744 | 14.45711 | 36967 ft | 445 kts | 138° |
| 2026-05-06 13:26 | 44.50067 | 14.52789 | 36974 ft | 452 kts | 129° |
| 2026-05-06 13:27 | 44.46577 | 14.60109 | 36988 ft | 451 kts | 129° |
| 2026-05-06 13:27 | 44.43075 | 14.67402 | 36983 ft | 452 kts | 129° |
| 2026-05-06 13:28 | 44.39557 | 14.74697 | 36987 ft | 453 kts | 130° |
| 2026-05-06 13:28 | 44.35906 | 14.81832 | 36994 ft | 450 kts | 133° |
| 2026-05-06 13:29 | 44.31997 | 14.88648 | 36997 ft | 449 kts | 135° |
| 2026-05-06 13:29 | 44.28046 | 14.95401 | 37004 ft | 450 kts | 135° |
| 2026-05-06 13:30 | 44.24135 | 15.02223 | 37008 ft | 450 kts | 134° |
| 2026-05-06 13:30 | 44.20252 | 15.09084 | 37010 ft | 450 kts | 134° |
| 2026-05-06 13:31 | 44.16367 | 15.15929 | 37012 ft | 450 kts | 134° |
| 2026-05-06 13:31 | 44.12469 | 15.22757 | 37018 ft | 451 kts | 134° |
| 2026-05-06 13:32 | 44.08552 | 15.29574 | 37023 ft | 451 kts | 134° |
| 2026-05-06 13:32 | 44.04628 | 15.36393 | 37006 ft | 451 kts | 134° |
| 2026-05-06 13:33 | 44.00732 | 15.43155 | 37018 ft | 451 kts | 134° |
| 2026-05-06 13:33 | 43.96980 | 15.49668 | 37015 ft | 450 kts | 134° |
| 2026-05-06 13:34 | 43.93077 | 15.56436 | 37009 ft | 449 kts | 134° |
| 2026-05-06 13:34 | 43.89799 | 15.62082 | 36991 ft | 449 kts | 134° |
| 2026-05-06 13:35 | 43.85878 | 15.68824 | 36977 ft | 449 kts | 134° |
| 2026-05-06 13:35 | 43.81948 | 15.75562 | 36985 ft | 450 kts | 134° |
| 2026-05-06 13:36 | 43.78015 | 15.82299 | 36995 ft | 450 kts | 134° |
| 2026-05-06 13:36 | 43.74097 | 15.89003 | 37002 ft | 455 kts | 134° |
| 2026-05-06 13:37 | 43.70055 | 15.95896 | 37002 ft | 466 kts | 134° |
| 2026-05-06 13:37 | 43.65960 | 16.02870 | 37003 ft | 467 kts | 134° |
| 2026-05-06 13:38 | 43.61862 | 16.09834 | 37009 ft | 467 kts | 134° |
| 2026-05-06 13:38 | 43.57759 | 16.16789 | 37029 ft | 467 kts | 134° |
| 2026-05-06 13:39 | 43.53645 | 16.23736 | 37032 ft | 467 kts | 134° |
| 2026-05-06 13:39 | 43.49558 | 16.30710 | 37035 ft | 470 kts | 129° |
| 2026-05-06 13:40 | 43.46015 | 16.38326 | 37028 ft | 473 kts | 126° |
| 2026-05-06 13:40 | 43.42479 | 16.45974 | 37038 ft | 474 kts | 127° |
| 2026-05-06 13:41 | 43.38924 | 16.53610 | 37051 ft | 474 kts | 127° |
| 2026-05-06 13:41 | 43.35364 | 16.61238 | 37069 ft | 474 kts | 127° |
| 2026-05-06 13:42 | 43.31817 | 16.68824 | 37077 ft | 475 kts | 127° |
| 2026-05-06 13:42 | 43.28236 | 16.76457 | 37075 ft | 475 kts | 126° |
| 2026-05-06 13:43 | 43.24653 | 16.84082 | 37071 ft | 476 kts | 126° |
| 2026-05-06 13:43 | 43.21058 | 16.91709 | 37061 ft | 476 kts | 126° |
| 2026-05-06 13:44 | 43.17459 | 16.99322 | 37063 ft | 476 kts | 127° |
| 2026-05-06 13:44 | 43.13849 | 17.06930 | 37053 ft | 476 kts | 126° |
| 2026-05-06 13:45 | 43.10196 | 17.14503 | 37055 ft | 476 kts | 127° |
| 2026-05-06 13:45 | 43.04622 | 17.25770 | 37073 ft | 477 kts | 127° |
| 2026-05-06 13:46 | 43.00912 | 17.33297 | 37078 ft | 477 kts | 127° |
| 2026-05-06 13:46 | 42.97205 | 17.40826 | 37070 ft | 478 kts | 127° |
| 2026-05-06 13:47 | 42.93488 | 17.48344 | 37066 ft | 475 kts | 127° |
| 2026-05-06 13:47 | 42.91665 | 17.52027 | 37053 ft | 463 kts | 127° |
| 2026-05-06 13:47 | 42.89875 | 17.55644 | 37059 ft | 459 kts | 127° |
| 2026-05-06 13:48 | 42.86385 | 17.62912 | 37064 ft | 458 kts | 126° |
| 2026-05-06 13:48 | 42.82950 | 17.70219 | 37067 ft | 458 kts | 126° |
| 2026-05-06 13:49 | 42.79506 | 17.77529 | 37073 ft | 459 kts | 126° |
| 2026-05-06 13:49 | 42.76025 | 17.84838 | 37073 ft | 461 kts | 126° |
| 2026-05-06 13:50 | 42.72520 | 17.92147 | 36827 ft | 463 kts | 126° |
| 2026-05-06 13:50 | 42.70742 | 17.95851 | 35801 ft | 473 kts | 126° |
| 2026-05-06 13:50 | 42.68926 | 17.99625 | 34897 ft | 479 kts | 126° |
| 2026-05-06 13:51 | 42.67106 | 18.03415 | 34253 ft | 479 kts | 126° |
| 2026-05-06 13:51 | 42.65284 | 18.07218 | 33510 ft | 480 kts | 126° |
| 2026-05-06 13:51 | 42.63467 | 18.11008 | 32873 ft | 478 kts | 126° |
| 2026-05-06 13:51 | 42.61651 | 18.14783 | 32307 ft | 476 kts | 126° |
| 2026-05-06 13:52 | 42.59844 | 18.18531 | 31766 ft | 472 kts | 127° |
| 2026-05-06 13:52 | 42.58070 | 18.22200 | 31267 ft | 470 kts | 127° |
| 2026-05-06 13:52 | 42.56283 | 18.25891 | 30780 ft | 466 kts | 127° |
| 2026-05-06 13:52 | 42.54498 | 18.29552 | 30248 ft | 463 kts | 128° |
| 2026-05-06 13:53 | 42.52699 | 18.33148 | 29666 ft | 459 kts | 128° |
| 2026-05-06 13:53 | 42.50883 | 18.36688 | 29078 ft | 455 kts | 129° |
| 2026-05-06 13:53 | 42.49068 | 18.40177 | 28520 ft | 451 kts | 129° |
| 2026-05-06 13:53 | 42.47261 | 18.43644 | 27939 ft | 448 kts | 129° |
| 2026-05-06 13:54 | 42.45482 | 18.47076 | 27450 ft | 443 kts | 129° |
| 2026-05-06 13:54 | 42.43720 | 18.50471 | 27020 ft | 438 kts | 129° |
| 2026-05-06 13:54 | 42.41954 | 18.53799 | 26581 ft | 433 kts | 131° |
| 2026-05-06 13:54 | 42.39963 | 18.56776 | 26154 ft | 422 kts | 142° |
| 2026-05-06 13:55 | 42.37770 | 18.59379 | 25726 ft | 418 kts | 143° |
| 2026-05-06 13:55 | 42.35597 | 18.61974 | 25287 ft | 415 kts | 143° |
| 2026-05-06 13:55 | 42.33450 | 18.64565 | 24870 ft | 413 kts | 142° |
| 2026-05-06 13:55 | 42.31316 | 18.67156 | 24434 ft | 411 kts | 142° |
| 2026-05-06 13:56 | 42.29195 | 18.69735 | 24000 ft | 409 kts | 142° |
| 2026-05-06 13:56 | 42.27081 | 18.72299 | 23512 ft | 408 kts | 142° |
| 2026-05-06 13:56 | 42.24971 | 18.74847 | 23042 ft | 405 kts | 142° |
| 2026-05-06 13:56 | 42.22878 | 18.77369 | 22565 ft | 402 kts | 142° |
| 2026-05-06 13:57 | 42.20802 | 18.79871 | 22107 ft | 398 kts | 142° |
| 2026-05-06 13:57 | 42.18744 | 18.82346 | 21650 ft | 395 kts | 142° |
| 2026-05-06 13:57 | 42.16696 | 18.84800 | 21196 ft | 392 kts | 142° |
| 2026-05-06 13:57 | 42.14659 | 18.87235 | 20734 ft | 390 kts | 142° |
| 2026-05-06 13:58 | 42.12636 | 18.89650 | 20274 ft | 387 kts | 142° |
| 2026-05-06 13:58 | 42.10629 | 18.92041 | 19822 ft | 384 kts | 142° |
| 2026-05-06 13:58 | 42.08642 | 18.94415 | 19364 ft | 381 kts | 141° |
| 2026-05-06 13:58 | 42.06672 | 18.96778 | 18914 ft | 378 kts | 141° |
| 2026-05-06 13:59 | 42.04718 | 18.99126 | 18465 ft | 375 kts | 141° |
| 2026-05-06 13:59 | 42.02775 | 19.01451 | 17959 ft | 372 kts | 141° |
| 2026-05-06 13:59 | 42.00851 | 19.03739 | 17524 ft | 367 kts | 141° |
| 2026-05-06 13:59 | 41.98952 | 19.05998 | 17090 ft | 362 kts | 141° |
| 2026-05-06 14:00 | 41.97077 | 19.08233 | 16653 ft | 359 kts | 141° |
| 2026-05-06 14:00 | 41.95222 | 19.10443 | 16228 ft | 354 kts | 141° |
| 2026-05-06 14:00 | 41.93385 | 19.12624 | 15794 ft | 351 kts | 141° |
| 2026-05-06 14:00 | 41.91564 | 19.14779 | 15381 ft | 347 kts | 141° |
| 2026-05-06 14:01 | 41.89916 | 19.16725 | 14999 ft | 344 kts | 141° |
| 2026-05-06 14:01 | 41.88123 | 19.18846 | 14517 ft | 343 kts | 141° |
| 2026-05-06 14:01 | 41.86341 | 19.20958 | 14089 ft | 341 kts | 141° |
| 2026-05-06 14:01 | 41.84570 | 19.23056 | 13655 ft | 339 kts | 141° |
| 2026-05-06 14:02 | 41.82812 | 19.25139 | 13234 ft | 335 kts | 141° |
| 2026-05-06 14:02 | 41.81074 | 19.27189 | 12835 ft | 331 kts | 141° |
| 2026-05-06 14:02 | 41.79352 | 19.29218 | 12434 ft | 327 kts | 141° |
| 2026-05-06 14:02 | 41.77667 | 19.31237 | 12034 ft | 324 kts | 137° |
| 2026-05-06 14:03 | 41.76170 | 19.33517 | 11368 ft | 331 kts | 132° |
| 2026-05-06 14:03 | 41.74675 | 19.35912 | 10631 ft | 338 kts | 131° |
| 2026-05-06 14:03 | 41.73181 | 19.38309 | 10311 ft | 331 kts | 131° |
| 2026-05-06 14:03 | 41.71741 | 19.40633 | 10198 ft | 318 kts | 131° |
| 2026-05-06 14:04 | 41.70352 | 19.42861 | 10060 ft | 307 kts | 132° |
| 2026-05-06 14:04 | 41.68990 | 19.45023 | 9761 ft | 302 kts | 132° |
| 2026-05-06 14:04 | 41.67653 | 19.47144 | 9132 ft | 295 kts | 132° |
| 2026-05-06 14:04 | 41.66339 | 19.49230 | 8350 ft | 291 kts | 132° |
| 2026-05-06 14:05 | 41.65071 | 19.51314 | 7572 ft | 288 kts | 126° |
| 2026-05-06 14:05 | 41.64211 | 19.53710 | 6843 ft | 287 kts | 108° |
| 2026-05-06 14:05 | 41.63931 | 19.56337 | 6097 ft | 286 kts | 90° |
| 2026-05-06 14:05 | 41.64113 | 19.58973 | 5358 ft | 283 kts | 86° |
| 2026-05-06 14:06 | 41.64315 | 19.61512 | 5030 ft | 264 kts | 86° |
| 2026-05-06 14:06 | 41.64498 | 19.63839 | 4882 ft | 240 kts | 87° |
| 2026-05-06 14:06 | 41.64575 | 19.66013 | 4762 ft | 230 kts | 104° |
| 2026-05-06 14:06 | 41.63964 | 19.67905 | 4651 ft | 221 kts | 134° |
| 2026-05-06 14:07 | 41.62757 | 19.69104 | 4318 ft | 214 kts | 163° |
| 2026-05-06 14:07 | 41.61326 | 19.69425 | 3981 ft | 213 kts | 175° |
| 2026-05-06 14:07 | 41.59848 | 19.69606 | 3602 ft | 214 kts | 175° |
| 2026-05-06 14:07 | 41.58371 | 19.69796 | 3239 ft | 213 kts | 174° |
| 2026-05-06 14:08 | 41.56912 | 19.69987 | 3023 ft | 205 kts | 174° |
| 2026-05-06 14:08 | 41.55521 | 19.70174 | 2971 ft | 197 kts | 173° |
| 2026-05-06 14:08 | 41.54181 | 19.70359 | 2551 ft | 192 kts | 173° |
| 2026-05-06 14:08 | 41.52862 | 19.70538 | 2184 ft | 188 kts | 173° |
| 2026-05-06 14:09 | 41.51588 | 19.70709 | 1902 ft | 180 kts | 174° |
| 2026-05-06 14:09 | 41.50370 | 19.70871 | 1660 ft | 171 kts | 174° |
| 2026-05-06 14:09 | 41.49243 | 19.71022 | 1443 ft | 157 kts | 174° |
| 2026-05-06 14:09 | 41.48211 | 19.71160 | 1260 ft | 144 kts | 175° |
| 2026-05-06 14:10 | 41.47227 | 19.71291 | 1060 ft | 141 kts | 176° |
| 2026-05-06 14:10 | 41.46253 | 19.71420 | 856 ft | 141 kts | 178° |
| 2026-05-06 14:10 | 41.45274 | 19.71551 | 676 ft | 142 kts | 177° |
| 2026-05-06 14:10 | 41.44283 | 19.71676 | 436 ft | 144 kts | 177° |
| 2026-05-06 14:11 | 41.43287 | 19.71808 | 241 ft | 144 kts | 176° |
| 2026-05-06 14:11 | 41.42294 | 19.71951 | 127 ft | 136 kts | 177° |
| 2026-05-06 14:11 | 41.41476 | 19.72053 | 123 ft | 95 kts | 174° |
| 2026-05-06 14:11 | 41.40986 | 19.72122 | 133 ft | 46 kts | 174° |
| 2026-05-06 14:12 | 41.40768 | 19.72146 | 134 ft | 20 kts | 174° |
| 2026-05-06 14:12 | 41.40688 | 19.72129 | 134 ft | 9 kts | 232° |
| 2026-05-06 14:12 | 41.40667 | 19.72031 | 132 ft | 13 kts | 257° |
| 2026-05-06 14:12 | 41.40644 | 19.71904 | 132 ft | 15 kts | 257° |
| 2026-05-06 14:13 | 41.40668 | 19.71776 | 132 ft | 16 kts | 326° |
| 2026-05-06 14:13 | 41.40784 | 19.71751 | 132 ft | 18 kts | 352° |
| 2026-05-06 14:13 | 41.40912 | 19.71722 | 131 ft | 20 kts | 349° |
| 2026-05-06 14:13 | 41.41046 | 19.71701 | 128 ft | 17 kts | 354° |
| 2026-05-06 14:14 | 41.41145 | 19.71689 | 130 ft | 15 kts | 354° |
| 2026-05-06 14:14 | 41.41257 | 19.71671 | 125 ft | 17 kts | 353° |
| 2026-05-06 14:14 | 41.41386 | 19.71652 | 126 ft | 20 kts | 354° |
| 2026-05-06 14:14 | 41.41532 | 19.71632 | 126 ft | 22 kts | 354° |
| 2026-05-06 14:15 | 41.41681 | 19.71619 | 126 ft | 21 kts | 358° |
| 2026-05-06 14:15 | 41.41820 | 19.71606 | 124 ft | 19 kts | 354° |
| 2026-05-06 14:15 | 41.41928 | 19.71585 | 121 ft | 8 kts | 351° |
| 2026-05-06 14:15 | 41.41951 | 19.71548 | 119 ft | 4 kts | 262° |
| 2026-05-06 14:16 | 41.41949 | 19.71524 | 119 ft | 0 kts | 265° |